CheckWX is a tool to help pilots better visualize weather data.  It is not intended as a substitute for an official pre-flight weather briefing.

20:59:49 UTC

UCFM TAF
Manas
Manas
TAF UCFM 221640Z 2218/2318 07003G08MPS 3000 BR SCT050CB BKN100 TEMPO 2218/2224 22003G08MPS 1500 BR FU FEW005 TEMPO 2300/2304 1500 BR FU FEW005 FM230400 32003G08MPS 6000 BKN030CB TEMPO 2304/2310 27005G10MPS PROB40 TEMPO 2304/2310 TS

Mar-22@
18:00 UTC

Mar-22 @ 18:00 UTC

Mar-23@
04:00 UTC

Mar-23 @ 04:00 UTC

TAF UCFM 221640Z 2218/2318 07003G08MPS 3000 BR SCT050CB BKN100
Wind
  • 070° at 6 KTS
  • {Gusting to 16 KTS
Conditions
Mist
Cloud Levels
  • Scattered at 5,000' AGL
  • Broken at 10,000' AGL

Mar-22@
18:00 UTC

Mar-22 @ 18:00 UTC

Mar-23@
00:00 UTC

Mar-23 @ 00:00 UTC

TEMPO 2218/2224 22003G08MPS 1500 BR FU FEW005

Temporary

Temporary Changes expected for less than half the time period

Wind
  • 220° at 6 KTS
  • {Gusting to 16 KTS
Conditions
Mist, Smoke
Cloud Levels
  • Few at 500' AGL

Mar-23@
00:00 UTC

Mar-23 @ 00:00 UTC

Mar-23@
04:00 UTC

Mar-23 @ 04:00 UTC

TEMPO 2300/2304 1500 BR FU FEW005

Temporary

Temporary Changes expected for less than half the time period

Conditions
Mist, Smoke
Cloud Levels
  • Few at 500' AGL

Mar-23@
04:00 UTC

Mar-23 @ 04:00 UTC

Mar-23@
10:00 UTC

Mar-23 @ 10:00 UTC

TEMPO 2304/2310 27005G10MPS

Temporary

Temporary Changes expected for less than half the time period

Wind
  • 270° at 10 KTS
  • {Gusting to 19 KTS

Mar-23@
04:00 UTC

Mar-23 @ 04:00 UTC

Mar-23@
10:00 UTC

Mar-23 @ 10:00 UTC

PROB40 TEMPO 2304/2310 TS

Temporary - 40% Likelihood

Temporary - 40% Likelihood during this time.

Conditions
Thunderstorm

Mar-23@
04:00 UTC

Mar-23 @ 04:00 UTC

Mar-23@
18:00 UTC

Mar-23 @ 18:00 UTC

FM230400 32003G08MPS 6000 BKN030CB

From

From Standard forecast or significant change

Wind
  • 320° at 6 KTS
  • {Gusting to 16 KTS
Cloud Levels
  • Broken at 3,000' AGL